sensor_id;sensor_type;location;lat;lon;timestamp;P1;durP1;ratioP1;P2;durP2;ratioP2
7440;SDS011;29616;51.950;8.572;2023-05-17T00:00:18;8.80;;;1.80;;
7440;SDS011;29616;51.950;8.572;2023-05-17T00:02:49;8.07;;;1.55;;
7440;SDS011;29616;51.950;8.572;2023-05-17T00:05:18;4.85;;;1.33;;
7440;SDS011;29616;51.950;8.572;2023-05-17T00:07:48;7.38;;;1.55;;
7440;SDS011;29616;51.950;8.572;2023-05-17T00:10:19;8.63;;;2.08;;
7440;SDS011;29616;51.950;8.572;2023-05-17T00:12:49;6.60;;;4.35;;
7440;SDS011;29616;51.950;8.572;2023-05-17T00:15:18;6.32;;;1.58;;
7440;SDS011;29616;51.950;8.572;2023-05-17T00:17:50;10.10;;;4.65;;
7440;SDS011;29616;51.950;8.572;2023-05-17T00:20:20;7.22;;;2.00;;
7440;SDS011;29616;51.950;8.572;2023-05-17T00:22:48;6.55;;;3.05;;
7440;SDS011;29616;51.950;8.572;2023-05-17T00:25:18;5.28;;;1.50;;
7440;SDS011;29616;51.950;8.572;2023-05-17T00:27:47;9.68;;;3.42;;
7440;SDS011;29616;51.950;8.572;2023-05-17T00:30:15;7.40;;;2.13;;
7440;SDS011;29616;51.950;8.572;2023-05-17T00:32:45;10.35;;;3.72;;
7440;SDS011;29616;51.950;8.572;2023-05-17T00:35:18;7.30;;;3.22;;
7440;SDS011;29616;51.950;8.572;2023-05-17T00:37:49;12.45;;;1.95;;
7440;SDS011;29616;51.950;8.572;2023-05-17T00:40:17;9.40;;;3.58;;
7440;SDS011;29616;51.950;8.572;2023-05-17T00:42:48;10.32;;;2.00;;
7440;SDS011;29616;51.950;8.572;2023-05-17T00:45:17;7.82;;;3.45;;
7440;SDS011;29616;51.950;8.572;2023-05-17T00:47:48;6.30;;;2.03;;
7440;SDS011;29616;51.950;8.572;2023-05-17T00:50:18;6.93;;;3.00;;
7440;SDS011;29616;51.950;8.572;2023-05-17T00:52:50;8.07;;;2.33;;
7440;SDS011;29616;51.950;8.572;2023-05-17T00:55:18;7.00;;;3.15;;
7440;SDS011;29616;51.950;8.572;2023-05-17T00:57:49;9.35;;;3.55;;
7440;SDS011;29616;51.950;8.572;2023-05-17T01:00:17;10.85;;;2.70;;
7440;SDS011;29616;51.950;8.572;2023-05-17T01:02:46;8.68;;;3.80;;
7440;SDS011;29616;51.950;8.572;2023-05-17T01:05:18;4.82;;;1.90;;
7440;SDS011;29616;51.950;8.572;2023-05-17T01:07:48;5.28;;;1.67;;
7440;SDS011;29616;51.950;8.572;2023-05-17T01:10:18;11.38;;;2.58;;
7440;SDS011;29616;51.950;8.572;2023-05-17T01:12:49;11.07;;;4.38;;
7440;SDS011;29616;51.950;8.572;2023-05-17T01:15:29;15.10;;;4.65;;
7440;SDS011;29616;51.950;8.572;2023-05-17T01:18:07;13.02;;;4.97;;
7440;SDS011;29616;51.950;8.572;2023-05-17T01:20:47;12.93;;;4.50;;
7440;SDS011;29616;51.950;8.572;2023-05-17T01:23:23;14.57;;;4.93;;
7440;SDS011;29616;51.950;8.572;2023-05-17T01:26:09;12.30;;;3.05;;
7440;SDS011;29616;51.950;8.572;2023-05-17T01:31:17;8.30;;;2.33;;
7440;SDS011;29616;51.950;8.572;2023-05-17T01:33:46;7.18;;;2.17;;
7440;SDS011;29616;51.950;8.572;2023-05-17T01:36:15;7.95;;;2.92;;
7440;SDS011;29616;51.950;8.572;2023-05-17T01:38:46;11.93;;;2.72;;
7440;SDS011;29616;51.950;8.572;2023-05-17T01:41:17;11.23;;;4.30;;
7440;SDS011;29616;51.950;8.572;2023-05-17T01:43:59;6.97;;;1.92;;
7440;SDS011;29616;51.950;8.572;2023-05-17T01:46:37;9.25;;;2.70;;
7440;SDS011;29616;51.950;8.572;2023-05-17T01:49:10;13.82;;;5.22;;
7440;SDS011;29616;51.950;8.572;2023-05-17T01:51:47;9.45;;;4.93;;
7440;SDS011;29616;51.950;8.572;2023-05-17T01:54:26;9.43;;;2.63;;
7440;SDS011;29616;51.950;8.572;2023-05-17T01:56:59;12.80;;;5.53;;
7440;SDS011;29616;51.950;8.572;2023-05-17T01:59:36;13.27;;;5.72;;
7440;SDS011;29616;51.950;8.572;2023-05-17T02:02:08;12.40;;;3.85;;
7440;SDS011;29616;51.950;8.572;2023-05-17T02:04:39;11.18;;;3.53;;
7440;SDS011;29616;51.950;8.572;2023-05-17T02:07:09;12.63;;;4.00;;
7440;SDS011;29616;51.950;8.572;2023-05-17T02:09:39;11.05;;;4.22;;
7440;SDS011;29616;51.950;8.572;2023-05-17T02:12:09;7.38;;;2.38;;
7440;SDS011;29616;51.950;8.572;2023-05-17T02:14:40;8.27;;;2.28;;
7440;SDS011;29616;51.950;8.572;2023-05-17T02:17:09;10.10;;;2.67;;
7440;SDS011;29616;51.950;8.572;2023-05-17T02:19:42;10.75;;;2.05;;
7440;SDS011;29616;51.950;8.572;2023-05-17T02:22:10;9.23;;;3.35;;
7440;SDS011;29616;51.950;8.572;2023-05-17T02:24:40;14.50;;;3.42;;
7440;SDS011;29616;51.950;8.572;2023-05-17T02:27:10;7.45;;;4.13;;
7440;SDS011;29616;51.950;8.572;2023-05-17T02:29:40;8.32;;;3.60;;
7440;SDS011;29616;51.950;8.572;2023-05-17T02:32:08;9.18;;;2.83;;
7440;SDS011;29616;51.950;8.572;2023-05-17T02:34:38;12.07;;;3.70;;
7440;SDS011;29616;51.950;8.572;2023-05-17T02:37:09;14.25;;;5.30;;
7440;SDS011;29616;51.950;8.572;2023-05-17T02:39:38;16.17;;;5.68;;
7440;SDS011;29616;51.950;8.572;2023-05-17T02:42:07;17.02;;;3.92;;
7440;SDS011;29616;51.950;8.572;2023-05-17T02:44:39;14.60;;;5.80;;
7440;SDS011;29616;51.950;8.572;2023-05-17T02:47:09;14.10;;;2.83;;
7440;SDS011;29616;51.950;8.572;2023-05-17T02:49:38;10.27;;;6.05;;
7440;SDS011;29616;51.950;8.572;2023-05-17T02:52:08;9.85;;;2.67;;
7440;SDS011;29616;51.950;8.572;2023-05-17T02:54:39;11.98;;;2.75;;
7440;SDS011;29616;51.950;8.572;2023-05-17T02:57:10;12.95;;;4.47;;
7440;SDS011;29616;51.950;8.572;2023-05-17T02:59:41;13.00;;;3.65;;
7440;SDS011;29616;51.950;8.572;2023-05-17T03:02:11;11.35;;;2.30;;
7440;SDS011;29616;51.950;8.572;2023-05-17T03:04:42;8.82;;;2.67;;
7440;SDS011;29616;51.950;8.572;2023-05-17T03:07:11;18.10;;;4.32;;
7440;SDS011;29616;51.950;8.572;2023-05-17T03:09:42;21.23;;;5.88;;
7440;SDS011;29616;51.950;8.572;2023-05-17T03:12:11;15.55;;;3.83;;
7440;SDS011;29616;51.950;8.572;2023-05-17T03:14:42;9.73;;;3.45;;
7440;SDS011;29616;51.950;8.572;2023-05-17T03:17:14;13.10;;;3.03;;
7440;SDS011;29616;51.950;8.572;2023-05-17T03:19:44;13.95;;;5.25;;
7440;SDS011;29616;51.950;8.572;2023-05-17T03:22:15;7.10;;;2.45;;
7440;SDS011;29616;51.950;8.572;2023-05-17T03:24:44;11.07;;;4.70;;
7440;SDS011;29616;51.950;8.572;2023-05-17T03:27:15;8.00;;;3.55;;
7440;SDS011;29616;51.950;8.572;2023-05-17T03:29:46;10.30;;;4.25;;
7440;SDS011;29616;51.950;8.572;2023-05-17T03:32:18;9.02;;;2.83;;
7440;SDS011;29616;51.950;8.572;2023-05-17T03:34:47;12.48;;;2.38;;
7440;SDS011;29616;51.950;8.572;2023-05-17T03:37:17;9.63;;;2.17;;
7440;SDS011;29616;51.950;8.572;2023-05-17T03:39:46;5.82;;;2.75;;
7440;SDS011;29616;51.950;8.572;2023-05-17T03:42:15;9.13;;;3.97;;
7440;SDS011;29616;51.950;8.572;2023-05-17T03:44:47;8.63;;;4.55;;
7440;SDS011;29616;51.950;8.572;2023-05-17T03:47:17;7.22;;;3.60;;
7440;SDS011;29616;51.950;8.572;2023-05-17T03:49:50;9.45;;;4.28;;
7440;SDS011;29616;51.950;8.572;2023-05-17T03:52:18;6.22;;;2.10;;
7440;SDS011;29616;51.950;8.572;2023-05-17T03:54:48;11.30;;;2.83;;
7440;SDS011;29616;51.950;8.572;2023-05-17T03:57:18;12.45;;;4.93;;
7440;SDS011;29616;51.950;8.572;2023-05-17T03:59:50;13.90;;;4.65;;
7440;SDS011;29616;51.950;8.572;2023-05-17T04:02:20;8.82;;;3.42;;
7440;SDS011;29616;51.950;8.572;2023-05-17T04:04:51;9.70;;;5.40;;
7440;SDS011;29616;51.950;8.572;2023-05-17T04:07:21;12.50;;;6.00;;
7440;SDS011;29616;51.950;8.572;2023-05-17T04:09:55;16.92;;;5.03;;
7440;SDS011;29616;51.950;8.572;2023-05-17T04:12:27;14.48;;;5.38;;
7440;SDS011;29616;51.950;8.572;2023-05-17T04:14:57;10.90;;;5.07;;
7440;SDS011;29616;51.950;8.572;2023-05-17T04:17:28;13.85;;;4.60;;
7440;SDS011;29616;51.950;8.572;2023-05-17T04:19:58;11.27;;;5.35;;
7440;SDS011;29616;51.950;8.572;2023-05-17T04:22:27;12.45;;;3.17;;
7440;SDS011;29616;51.950;8.572;2023-05-17T04:24:57;9.50;;;4.70;;
7440;SDS011;29616;51.950;8.572;2023-05-17T04:27:27;8.18;;;4.78;;
7440;SDS011;29616;51.950;8.572;2023-05-17T04:29:58;9.07;;;4.43;;
7440;SDS011;29616;51.950;8.572;2023-05-17T04:32:29;10.00;;;5.03;;
7440;SDS011;29616;51.950;8.572;2023-05-17T04:35:00;12.25;;;3.00;;
7440;SDS011;29616;51.950;8.572;2023-05-17T04:37:30;19.40;;;5.20;;
7440;SDS011;29616;51.950;8.572;2023-05-17T04:40:05;12.73;;;3.55;;
7440;SDS011;29616;51.950;8.572;2023-05-17T04:42:37;13.00;;;7.80;;
7440;SDS011;29616;51.950;8.572;2023-05-17T04:45:08;13.52;;;4.40;;
7440;SDS011;29616;51.950;8.572;2023-05-17T04:47:41;19.55;;;6.55;;
7440;SDS011;29616;51.950;8.572;2023-05-17T04:50:10;13.35;;;6.07;;
7440;SDS011;29616;51.950;8.572;2023-05-17T04:52:40;15.32;;;6.45;;
7440;SDS011;29616;51.950;8.572;2023-05-17T04:55:10;12.05;;;6.30;;
7440;SDS011;29616;51.950;8.572;2023-05-17T04:57:41;14.18;;;3.78;;
7440;SDS011;29616;51.950;8.572;2023-05-17T05:00:14;17.30;;;6.78;;
7440;SDS011;29616;51.950;8.572;2023-05-17T05:02:51;14.70;;;7.10;;
7440;SDS011;29616;51.950;8.572;2023-05-17T05:05:22;19.98;;;7.03;;
7440;SDS011;29616;51.950;8.572;2023-05-17T05:07:52;16.75;;;8.23;;
7440;SDS011;29616;51.950;8.572;2023-05-17T05:10:21;20.42;;;7.78;;
7440;SDS011;29616;51.950;8.572;2023-05-17T05:12:50;16.02;;;5.55;;
7440;SDS011;29616;51.950;8.572;2023-05-17T05:15:23;20.92;;;7.03;;
7440;SDS011;29616;51.950;8.572;2023-05-17T05:17:56;18.65;;;9.27;;
7440;SDS011;29616;51.950;8.572;2023-05-17T05:20:25;18.90;;;8.07;;
7440;SDS011;29616;51.950;8.572;2023-05-17T05:22:55;23.63;;;9.38;;
7440;SDS011;29616;51.950;8.572;2023-05-17T05:25:28;19.20;;;9.95;;
7440;SDS011;29616;51.950;8.572;2023-05-17T05:27:58;20.90;;;7.93;;
7440;SDS011;29616;51.950;8.572;2023-05-17T05:30:29;18.23;;;6.25;;
7440;SDS011;29616;51.950;8.572;2023-05-17T05:33:01;21.10;;;8.52;;
7440;SDS011;29616;51.950;8.572;2023-05-17T05:35:30;22.60;;;6.50;;
7440;SDS011;29616;51.950;8.572;2023-05-17T05:38:00;19.17;;;6.93;;
7440;SDS011;29616;51.950;8.572;2023-05-17T05:40:29;13.68;;;4.40;;
7440;SDS011;29616;51.950;8.572;2023-05-17T05:42:58;21.08;;;7.78;;
7440;SDS011;29616;51.950;8.572;2023-05-17T05:45:31;17.25;;;6.82;;
7440;SDS011;29616;51.950;8.572;2023-05-17T05:48:01;13.65;;;7.18;;
7440;SDS011;29616;51.950;8.572;2023-05-17T05:50:33;16.13;;;7.88;;
7440;SDS011;29616;51.950;8.572;2023-05-17T05:53:08;12.07;;;4.70;;
7440;SDS011;29616;51.950;8.572;2023-05-17T05:55:50;17.02;;;8.20;;
7440;SDS011;29616;51.950;8.572;2023-05-17T05:58:21;19.73;;;6.97;;
7440;SDS011;29616;51.950;8.572;2023-05-17T06:03:20;17.05;;;5.32;;
7440;SDS011;29616;51.950;8.572;2023-05-17T06:05:51;14.50;;;5.00;;
7440;SDS011;29616;51.950;8.572;2023-05-17T06:08:20;10.25;;;5.72;;
7440;SDS011;29616;51.950;8.572;2023-05-17T06:10:51;16.55;;;7.07;;
7440;SDS011;29616;51.950;8.572;2023-05-17T06:13:20;8.68;;;5.00;;
7440;SDS011;29616;51.950;8.572;2023-05-17T06:15:53;10.73;;;3.65;;
7440;SDS011;29616;51.950;8.572;2023-05-17T06:18:21;13.70;;;3.10;;
7440;SDS011;29616;51.950;8.572;2023-05-17T06:20:52;9.15;;;3.75;;
7440;SDS011;29616;51.950;8.572;2023-05-17T06:23:21;8.05;;;3.47;;
7440;SDS011;29616;51.950;8.572;2023-05-17T06:25:49;11.10;;;3.50;;
7440;SDS011;29616;51.950;8.572;2023-05-17T06:28:19;16.77;;;3.00;;
7440;SDS011;29616;51.950;8.572;2023-05-17T06:30:57;17.55;;;3.95;;
7440;SDS011;29616;51.950;8.572;2023-05-17T06:33:27;6.85;;;2.28;;
7440;SDS011;29616;51.950;8.572;2023-05-17T06:35:58;14.50;;;3.13;;
7440;SDS011;29616;51.950;8.572;2023-05-17T06:38:29;10.93;;;3.28;;
7440;SDS011;29616;51.950;8.572;2023-05-17T06:40:58;10.70;;;2.15;;
7440;SDS011;29616;51.950;8.572;2023-05-17T06:43:28;7.68;;;1.58;;
7440;SDS011;29616;51.950;8.572;2023-05-17T06:46:02;10.00;;;1.63;;
7440;SDS011;29616;51.950;8.572;2023-05-17T06:48:32;8.75;;;2.88;;
7440;SDS011;29616;51.950;8.572;2023-05-17T06:51:01;7.70;;;3.45;;
7440;SDS011;29616;51.950;8.572;2023-05-17T06:53:29;10.30;;;2.55;;
7440;SDS011;29616;51.950;8.572;2023-05-17T06:58:29;6.18;;;2.25;;
7440;SDS011;29616;51.950;8.572;2023-05-17T07:00:59;9.93;;;3.35;;
7440;SDS011;29616;51.950;8.572;2023-05-17T07:03:31;10.45;;;3.10;;
7440;SDS011;29616;51.950;8.572;2023-05-17T07:06:02;8.90;;;2.70;;
7440;SDS011;29616;51.950;8.572;2023-05-17T07:08:31;12.05;;;2.83;;
7440;SDS011;29616;51.950;8.572;2023-05-17T07:11:00;7.88;;;2.28;;
7440;SDS011;29616;51.950;8.572;2023-05-17T07:13:31;7.13;;;4.10;;
7440;SDS011;29616;51.950;8.572;2023-05-17T07:16:00;10.65;;;2.50;;
7440;SDS011;29616;51.950;8.572;2023-05-17T07:18:31;10.05;;;3.78;;
7440;SDS011;29616;51.950;8.572;2023-05-17T07:21:01;7.00;;;3.00;;
7440;SDS011;29616;51.950;8.572;2023-05-17T07:23:31;11.18;;;1.60;;
7440;SDS011;29616;51.950;8.572;2023-05-17T07:26:00;6.05;;;2.50;;
7440;SDS011;29616;51.950;8.572;2023-05-17T07:28:29;7.03;;;2.35;;
7440;SDS011;29616;51.950;8.572;2023-05-17T07:30:59;4.68;;;2.55;;
7440;SDS011;29616;51.950;8.572;2023-05-17T07:33:29;7.82;;;2.60;;
7440;SDS011;29616;51.950;8.572;2023-05-17T07:36:00;8.10;;;2.35;;
7440;SDS011;29616;51.950;8.572;2023-05-17T07:38:31;3.75;;;1.88;;
7440;SDS011;29616;51.950;8.572;2023-05-17T07:41:02;4.60;;;0.98;;
7440;SDS011;29616;51.950;8.572;2023-05-17T07:43:35;5.97;;;1.98;;
7440;SDS011;29616;51.950;8.572;2023-05-17T07:46:05;7.53;;;1.05;;
7440;SDS011;29616;51.950;8.572;2023-05-17T07:48:35;9.93;;;2.72;;
7440;SDS011;29616;51.950;8.572;2023-05-17T07:51:03;6.90;;;3.25;;
7440;SDS011;29616;51.950;8.572;2023-05-17T07:53:32;10.80;;;3.33;;
7440;SDS011;29616;51.950;8.572;2023-05-17T07:56:04;6.55;;;2.38;;
7440;SDS011;29616;51.950;8.572;2023-05-17T07:58:32;7.18;;;3.22;;
7440;SDS011;29616;51.950;8.572;2023-05-17T08:01:06;9.25;;;2.08;;
7440;SDS011;29616;51.950;8.572;2023-05-17T08:03:36;4.80;;;1.83;;
7440;SDS011;29616;51.950;8.572;2023-05-17T08:06:13;7.88;;;2.17;;
7440;SDS011;29616;51.950;8.572;2023-05-17T08:08:43;8.10;;;1.63;;
7440;SDS011;29616;51.950;8.572;2023-05-17T08:11:13;8.73;;;2.22;;
7440;SDS011;29616;51.950;8.572;2023-05-17T08:13:43;8.07;;;0.85;;
7440;SDS011;29616;51.950;8.572;2023-05-17T08:16:14;7.70;;;1.70;;
7440;SDS011;29616;51.950;8.572;2023-05-17T08:18:47;5.13;;;2.30;;
7440;SDS011;29616;51.950;8.572;2023-05-17T08:21:17;6.10;;;2.75;;
7440;SDS011;29616;51.950;8.572;2023-05-17T08:23:48;4.75;;;2.50;;
7440;SDS011;29616;51.950;8.572;2023-05-17T08:26:16;8.80;;;3.40;;
7440;SDS011;29616;51.950;8.572;2023-05-17T08:28:45;5.65;;;2.75;;
7440;SDS011;29616;51.950;8.572;2023-05-17T08:31:16;9.27;;;6.47;;
7440;SDS011;29616;51.950;8.572;2023-05-17T08:33:47;7.05;;;2.47;;
7440;SDS011;29616;51.950;8.572;2023-05-17T08:36:17;8.18;;;3.28;;
7440;SDS011;29616;51.950;8.572;2023-05-17T08:38:48;6.25;;;0.75;;
7440;SDS011;29616;51.950;8.572;2023-05-17T08:41:19;8.65;;;1.50;;
7440;SDS011;29616;51.950;8.572;2023-05-17T08:43:49;4.20;;;3.13;;
7440;SDS011;29616;51.950;8.572;2023-05-17T08:46:21;11.05;;;3.28;;
7440;SDS011;29616;51.950;8.572;2023-05-17T08:48:53;7.82;;;2.58;;
7440;SDS011;29616;51.950;8.572;2023-05-17T08:51:25;6.15;;;1.23;;
7440;SDS011;29616;51.950;8.572;2023-05-17T08:53:55;7.45;;;2.30;;
7440;SDS011;29616;51.950;8.572;2023-05-17T08:56:24;3.85;;;0.65;;
7440;SDS011;29616;51.950;8.572;2023-05-17T08:58:56;10.50;;;3.08;;
7440;SDS011;29616;51.950;8.572;2023-05-17T09:01:29;8.15;;;3.50;;
7440;SDS011;29616;51.950;8.572;2023-05-17T09:04:00;5.55;;;2.83;;
7440;SDS011;29616;51.950;8.572;2023-05-17T09:06:30;8.07;;;3.55;;
7440;SDS011;29616;51.950;8.572;2023-05-17T09:09:00;4.47;;;2.42;;
7440;SDS011;29616;51.950;8.572;2023-05-17T09:11:30;6.20;;;1.77;;
7440;SDS011;29616;51.950;8.572;2023-05-17T09:13:59;3.78;;;0.55;;
7440;SDS011;29616;51.950;8.572;2023-05-17T09:16:32;8.00;;;2.63;;
7440;SDS011;29616;51.950;8.572;2023-05-17T09:19:04;3.25;;;0.95;;
7440;SDS011;29616;51.950;8.572;2023-05-17T09:21:36;8.48;;;3.03;;
7440;SDS011;29616;51.950;8.572;2023-05-17T09:24:08;5.55;;;2.65;;
7440;SDS011;29616;51.950;8.572;2023-05-17T09:26:42;5.55;;;2.47;;
7440;SDS011;29616;51.950;8.572;2023-05-17T09:29:15;5.55;;;0.90;;
7440;SDS011;29616;51.950;8.572;2023-05-17T09:31:49;8.27;;;3.40;;
7440;SDS011;29616;51.950;8.572;2023-05-17T09:34:23;8.27;;;1.27;;
7440;SDS011;29616;51.950;8.572;2023-05-17T09:36:53;8.50;;;2.38;;
7440;SDS011;29616;51.950;8.572;2023-05-17T09:39:23;7.45;;;2.83;;
7440;SDS011;29616;51.950;8.572;2023-05-17T09:41:55;9.57;;;2.90;;
7440;SDS011;29616;51.950;8.572;2023-05-17T09:44:25;7.43;;;3.30;;
7440;SDS011;29616;51.950;8.572;2023-05-17T09:46:59;7.50;;;1.75;;
7440;SDS011;29616;51.950;8.572;2023-05-17T09:49:31;7.47;;;1.52;;
7440;SDS011;29616;51.950;8.572;2023-05-17T09:52:06;5.50;;;1.75;;
7440;SDS011;29616;51.950;8.572;2023-05-17T09:54:36;4.38;;;0.80;;
7440;SDS011;29616;51.950;8.572;2023-05-17T09:57:09;5.95;;;1.13;;
7440;SDS011;29616;51.950;8.572;2023-05-17T09:59:38;7.38;;;1.17;;
7440;SDS011;29616;51.950;8.572;2023-05-17T10:02:11;4.80;;;1.25;;
7440;SDS011;29616;51.950;8.572;2023-05-17T10:04:49;6.28;;;1.20;;
7440;SDS011;29616;51.950;8.572;2023-05-17T10:07:20;7.35;;;1.00;;
7440;SDS011;29616;51.950;8.572;2023-05-17T10:09:53;7.63;;;0.80;;
7440;SDS011;29616;51.950;8.572;2023-05-17T10:12:24;3.42;;;1.02;;
7440;SDS011;29616;51.950;8.572;2023-05-17T10:14:57;4.50;;;0.70;;
7440;SDS011;29616;51.950;8.572;2023-05-17T10:17:29;5.40;;;0.50;;
7440;SDS011;29616;51.950;8.572;2023-05-17T10:20:00;4.68;;;1.23;;
7440;SDS011;29616;51.950;8.572;2023-05-17T10:22:34;5.07;;;1.20;;
7440;SDS011;29616;51.950;8.572;2023-05-17T10:25:06;4.15;;;2.50;;
7440;SDS011;29616;51.950;8.572;2023-05-17T10:27:37;6.20;;;1.55;;
7440;SDS011;29616;51.950;8.572;2023-05-17T10:30:07;6.43;;;0.90;;
7440;SDS011;29616;51.950;8.572;2023-05-17T10:32:40;6.38;;;1.17;;
7440;SDS011;29616;51.950;8.572;2023-05-17T10:35:11;4.50;;;1.20;;
7440;SDS011;29616;51.950;8.572;2023-05-17T10:37:43;5.90;;;0.93;;
7440;SDS011;29616;51.950;8.572;2023-05-17T10:40:12;5.55;;;0.55;;
7440;SDS011;29616;51.950;8.572;2023-05-17T10:42:46;3.20;;;0.90;;
7440;SDS011;29616;51.950;8.572;2023-05-17T10:45:20;6.32;;;1.23;;
7440;SDS011;29616;51.950;8.572;2023-05-17T10:47:56;7.47;;;2.75;;
7440;SDS011;29616;51.950;8.572;2023-05-17T10:50:27;6.25;;;1.08;;
7440;SDS011;29616;51.950;8.572;2023-05-17T10:52:57;4.15;;;2.92;;
7440;SDS011;29616;51.950;8.572;2023-05-17T10:55:35;7.70;;;0.98;;
7440;SDS011;29616;51.950;8.572;2023-05-17T10:58:10;5.88;;;2.00;;
7440;SDS011;29616;51.950;8.572;2023-05-17T11:00:47;6.18;;;0.80;;
7440;SDS011;29616;51.950;8.572;2023-05-17T11:03:24;7.45;;;0.40;;
7440;SDS011;29616;51.950;8.572;2023-05-17T11:06:13;3.97;;;1.05;;
7440;SDS011;29616;51.950;8.572;2023-05-17T11:14:48;9.52;;;3.08;;
7440;SDS011;29616;51.950;8.572;2023-05-17T11:17:23;8.80;;;1.20;;
7440;SDS011;29616;51.950;8.572;2023-05-17T11:20:01;6.95;;;0.60;;
7440;SDS011;29616;51.950;8.572;2023-05-17T11:22:39;5.82;;;0.82;;
7440;SDS011;29616;51.950;8.572;2023-05-17T11:25:10;5.28;;;0.98;;
7440;SDS011;29616;51.950;8.572;2023-05-17T11:27:43;4.53;;;1.38;;
7440;SDS011;29616;51.950;8.572;2023-05-17T11:30:15;6.18;;;1.27;;
7440;SDS011;29616;51.950;8.572;2023-05-17T11:32:46;7.60;;;1.27;;
7440;SDS011;29616;51.950;8.572;2023-05-17T11:35:21;4.55;;;0.75;;
7440;SDS011;29616;51.950;8.572;2023-05-17T11:37:52;5.90;;;1.20;;
7440;SDS011;29616;51.950;8.572;2023-05-17T11:40:39;5.18;;;1.58;;
7440;SDS011;29616;51.950;8.572;2023-05-17T11:43:13;3.70;;;0.60;;
7440;SDS011;29616;51.950;8.572;2023-05-17T11:45:45;4.88;;;2.78;;
7440;SDS011;29616;51.950;8.572;2023-05-17T11:48:21;5.55;;;1.75;;
7440;SDS011;29616;51.950;8.572;2023-05-17T11:50:55;4.55;;;1.13;;
7440;SDS011;29616;51.950;8.572;2023-05-17T11:53:29;6.25;;;0.85;;
7440;SDS011;29616;51.950;8.572;2023-05-17T11:55:57;6.80;;;1.38;;
7440;SDS011;29616;51.950;8.572;2023-05-17T11:58:32;5.28;;;0.73;;
7440;SDS011;29616;51.950;8.572;2023-05-17T12:01:01;6.90;;;3.15;;
7440;SDS011;29616;51.950;8.572;2023-05-17T12:03:31;3.88;;;0.73;;
7440;SDS011;29616;51.950;8.572;2023-05-17T12:06:02;7.45;;;3.10;;
7440;SDS011;29616;51.950;8.572;2023-05-17T12:08:35;5.53;;;0.98;;
7440;SDS011;29616;51.950;8.572;2023-05-17T12:11:07;4.25;;;0.88;;
7440;SDS011;29616;51.950;8.572;2023-05-17T12:13:42;6.47;;;1.50;;
7440;SDS011;29616;51.950;8.572;2023-05-17T12:16:14;5.60;;;1.15;;
7440;SDS011;29616;51.950;8.572;2023-05-17T12:21:22;6.15;;;1.13;;
7440;SDS011;29616;51.950;8.572;2023-05-17T12:23:51;3.15;;;0.95;;
7440;SDS011;29616;51.950;8.572;2023-05-17T12:26:22;4.53;;;1.00;;
7440;SDS011;29616;51.950;8.572;2023-05-17T12:28:53;7.38;;;1.52;;
7440;SDS011;29616;51.950;8.572;2023-05-17T12:31:24;6.95;;;1.65;;
7440;SDS011;29616;51.950;8.572;2023-05-17T12:33:56;5.75;;;1.25;;
7440;SDS011;29616;51.950;8.572;2023-05-17T12:36:29;4.60;;;0.77;;
7440;SDS011;29616;51.950;8.572;2023-05-17T12:39:01;4.50;;;0.52;;
7440;SDS011;29616;51.950;8.572;2023-05-17T12:41:36;7.90;;;0.90;;
7440;SDS011;29616;51.950;8.572;2023-05-17T12:44:05;4.50;;;0.95;;
7440;SDS011;29616;51.950;8.572;2023-05-17T12:46:39;6.38;;;1.35;;
7440;SDS011;29616;51.950;8.572;2023-05-17T12:49:10;7.70;;;1.05;;
7440;SDS011;29616;51.950;8.572;2023-05-17T12:51:42;5.18;;;0.82;;
7440;SDS011;29616;51.950;8.572;2023-05-17T12:54:24;7.00;;;1.10;;
7440;SDS011;29616;51.950;8.572;2023-05-17T12:56:54;5.60;;;2.15;;
7440;SDS011;29616;51.950;8.572;2023-05-17T12:59:23;8.55;;;0.93;;
7440;SDS011;29616;51.950;8.572;2023-05-17T13:01:55;5.68;;;1.15;;
7440;SDS011;29616;51.950;8.572;2023-05-17T13:04:27;7.30;;;1.05;;
7440;SDS011;29616;51.950;8.572;2023-05-17T13:07:02;3.90;;;0.80;;
7440;SDS011;29616;51.950;8.572;2023-05-17T13:09:36;4.82;;;0.65;;
7440;SDS011;29616;51.950;8.572;2023-05-17T13:14:52;6.70;;;1.13;;
7440;SDS011;29616;51.950;8.572;2023-05-17T13:17:23;6.88;;;3.50;;
7440;SDS011;29616;51.950;8.572;2023-05-17T13:19:55;4.28;;;2.90;;
7440;SDS011;29616;51.950;8.572;2023-05-17T13:22:27;8.90;;;0.85;;
7440;SDS011;29616;51.950;8.572;2023-05-17T13:24:57;7.72;;;3.35;;
7440;SDS011;29616;51.950;8.572;2023-05-17T13:27:27;4.72;;;1.17;;
7440;SDS011;29616;51.950;8.572;2023-05-17T13:29:58;7.32;;;2.53;;
7440;SDS011;29616;51.950;8.572;2023-05-17T13:32:28;4.93;;;2.90;;
7440;SDS011;29616;51.950;8.572;2023-05-17T13:34:57;6.35;;;0.90;;
7440;SDS011;29616;51.950;8.572;2023-05-17T13:37:31;7.28;;;0.98;;
7440;SDS011;29616;51.950;8.572;2023-05-17T13:40:01;7.47;;;0.88;;
7440;SDS011;29616;51.950;8.572;2023-05-17T13:42:33;6.82;;;2.40;;
7440;SDS011;29616;51.950;8.572;2023-05-17T13:45:04;7.28;;;3.72;;
7440;SDS011;29616;51.950;8.572;2023-05-17T13:47:36;5.15;;;1.33;;
7440;SDS011;29616;51.950;8.572;2023-05-17T13:50:08;6.82;;;1.42;;
7440;SDS011;29616;51.950;8.572;2023-05-17T13:52:44;3.28;;;0.98;;
7440;SDS011;29616;51.950;8.572;2023-05-17T13:55:13;5.50;;;1.08;;
7440;SDS011;29616;51.950;8.572;2023-05-17T13:57:42;5.25;;;1.25;;
7440;SDS011;29616;51.950;8.572;2023-05-17T14:00:12;5.65;;;1.40;;
7440;SDS011;29616;51.950;8.572;2023-05-17T14:02:42;4.45;;;0.80;;
7440;SDS011;29616;51.950;8.572;2023-05-17T14:05:13;4.35;;;0.63;;
7440;SDS011;29616;51.950;8.572;2023-05-17T14:07:43;5.35;;;0.90;;
7440;SDS011;29616;51.950;8.572;2023-05-17T14:10:14;5.00;;;1.15;;
7440;SDS011;29616;51.950;8.572;2023-05-17T14:12:44;4.13;;;1.80;;
7440;SDS011;29616;51.950;8.572;2023-05-17T14:15:13;5.65;;;0.93;;
7440;SDS011;29616;51.950;8.572;2023-05-17T14:17:43;5.45;;;1.23;;
7440;SDS011;29616;51.950;8.572;2023-05-17T14:20:12;6.50;;;1.08;;
7440;SDS011;29616;51.950;8.572;2023-05-17T14:22:43;5.15;;;0.95;;
7440;SDS011;29616;51.950;8.572;2023-05-17T14:25:12;3.50;;;0.82;;
7440;SDS011;29616;51.950;8.572;2023-05-17T14:27:42;6.20;;;2.85;;
7440;SDS011;29616;51.950;8.572;2023-05-17T14:30:12;6.40;;;0.98;;
7440;SDS011;29616;51.950;8.572;2023-05-17T14:32:42;4.22;;;1.20;;
7440;SDS011;29616;51.950;8.572;2023-05-17T14:35:10;4.47;;;1.25;;
7440;SDS011;29616;51.950;8.572;2023-05-17T14:37:39;4.72;;;1.10;;
7440;SDS011;29616;51.950;8.572;2023-05-17T14:40:09;5.00;;;1.38;;
7440;SDS011;29616;51.950;8.572;2023-05-17T14:42:38;5.50;;;1.88;;
7440;SDS011;29616;51.950;8.572;2023-05-17T14:45:08;6.97;;;0.93;;
7440;SDS011;29616;51.950;8.572;2023-05-17T14:47:38;5.20;;;2.55;;
7440;SDS011;29616;51.950;8.572;2023-05-17T14:50:07;6.07;;;3.72;;
7440;SDS011;29616;51.950;8.572;2023-05-17T14:52:38;3.20;;;0.88;;
7440;SDS011;29616;51.950;8.572;2023-05-17T14:55:09;4.80;;;3.28;;
7440;SDS011;29616;51.950;8.572;2023-05-17T14:57:41;5.25;;;2.22;;
7440;SDS011;29616;51.950;8.572;2023-05-17T15:00:11;4.50;;;3.10;;
7440;SDS011;29616;51.950;8.572;2023-05-17T15:02:42;5.60;;;0.95;;
7440;SDS011;29616;51.950;8.572;2023-05-17T15:05:12;8.25;;;2.67;;
7440;SDS011;29616;51.950;8.572;2023-05-17T15:07:42;4.38;;;1.70;;
7440;SDS011;29616;51.950;8.572;2023-05-17T15:10:13;6.05;;;1.00;;
7440;SDS011;29616;51.950;8.572;2023-05-17T15:12:44;7.10;;;1.35;;
7440;SDS011;29616;51.950;8.572;2023-05-17T15:15:13;6.30;;;1.00;;
7440;SDS011;29616;51.950;8.572;2023-05-17T15:17:44;8.00;;;3.65;;
7440;SDS011;29616;51.950;8.572;2023-05-17T15:20:15;6.10;;;1.13;;
7440;SDS011;29616;51.950;8.572;2023-05-17T15:22:45;6.85;;;4.20;;
7440;SDS011;29616;51.950;8.572;2023-05-17T15:25:18;5.63;;;1.13;;
7440;SDS011;29616;51.950;8.572;2023-05-17T15:27:47;5.38;;;1.23;;
7440;SDS011;29616;51.950;8.572;2023-05-17T15:30:17;4.25;;;1.45;;
7440;SDS011;29616;51.950;8.572;2023-05-17T15:32:49;4.18;;;1.55;;
7440;SDS011;29616;51.950;8.572;2023-05-17T15:35:18;5.05;;;1.10;;
7440;SDS011;29616;51.950;8.572;2023-05-17T15:37:47;4.43;;;1.48;;
7440;SDS011;29616;51.950;8.572;2023-05-17T15:40:21;5.25;;;0.73;;